createdAt,value
2023-05-21T00:03:42.051Z,15.89
2023-05-21T00:07:45.904Z,15.94
2023-05-21T00:11:48.051Z,15.95
2023-05-21T00:15:50.205Z,15.92
2023-05-21T00:19:52.573Z,15.92
2023-05-21T00:23:56.689Z,15.87
2023-05-21T00:27:58.838Z,15.81
2023-05-21T00:32:01.174Z,15.80
2023-05-21T00:36:03.616Z,15.78
2023-05-21T00:40:08.865Z,15.76
2023-05-21T00:44:14.199Z,15.71
2023-05-21T00:48:16.395Z,15.65
2023-05-21T00:52:23.175Z,15.68
2023-05-21T00:56:27.356Z,15.64
2023-05-21T01:00:29.647Z,15.63
2023-05-21T01:04:32.281Z,15.65
2023-05-21T01:08:38.180Z,15.64
2023-05-21T01:12:44.053Z,15.70
2023-05-21T01:16:49.415Z,15.71
2023-05-21T01:20:52.550Z,15.76
2023-05-21T01:24:55.610Z,15.81
2023-05-21T01:28:59.618Z,15.94
2023-05-21T01:33:22.043Z,16.03
2023-05-21T01:37:32.890Z,16.06
2023-05-21T01:41:38.961Z,16.11
2023-05-21T01:45:43.022Z,16.12
2023-05-21T01:49:45.875Z,16.12
2023-05-21T01:53:47.965Z,16.19
2023-05-21T01:57:56.349Z,16.18
2023-05-21T02:01:58.847Z,16.20
2023-05-21T02:06:01.505Z,16.18
2023-05-21T02:10:04.718Z,16.13
2023-05-21T02:14:11.248Z,16.12
2023-05-21T02:18:17.047Z,16.11
2023-05-21T02:22:21.056Z,16.12
2023-05-21T02:26:24.912Z,16.07
2023-05-21T02:30:27.353Z,16.09
2023-05-21T02:34:33.072Z,16.15
2023-05-21T02:38:35.201Z,16.23
2023-05-21T02:42:39.821Z,16.22
2023-05-21T02:46:42.894Z,16.26
2023-05-21T02:50:45.203Z,16.31
2023-05-21T02:54:47.491Z,16.20
2023-05-21T02:58:49.557Z,15.96
2023-05-21T03:02:52.084Z,15.85
2023-05-21T03:06:55.443Z,15.82
2023-05-21T03:10:57.948Z,15.79
2023-05-21T03:15:00.029Z,15.75
2023-05-21T03:19:03.671Z,15.75
2023-05-21T03:23:06.072Z,15.69
2023-05-21T03:27:08.951Z,15.67
2023-05-21T03:31:11.688Z,15.57
2023-05-21T03:35:13.801Z,15.72
2023-05-21T03:39:16.033Z,15.72
2023-05-21T03:43:18.389Z,15.72
2023-05-21T03:47:21.545Z,15.70
2023-05-21T03:51:25.046Z,15.69
2023-05-21T03:55:27.475Z,15.73
2023-05-21T03:59:29.561Z,15.71
2023-05-21T04:03:36.685Z,15.73
2023-05-21T04:07:42.360Z,15.77
2023-05-21T04:11:44.486Z,15.81
2023-05-21T04:15:46.897Z,15.88
2023-05-21T04:19:49.216Z,15.84
2023-05-21T04:23:54.008Z,15.87
2023-05-21T04:28:04.387Z,15.96
2023-05-21T04:32:07.483Z,16.05
2023-05-21T04:36:10.630Z,16.04
2023-05-21T04:40:18.573Z,16.10
2023-05-21T04:44:21.000Z,16.18
2023-05-21T04:48:24.931Z,16.39
2023-05-21T04:52:27.309Z,16.56
2023-05-21T04:56:29.686Z,16.71
2023-05-21T05:00:32.216Z,16.80
2023-05-21T05:04:34.720Z,16.91
2023-05-21T05:08:37.007Z,17.03
2023-05-21T05:12:39.658Z,17.21
2023-05-21T05:16:43.321Z,17.31
2023-05-21T05:20:46.832Z,17.45
2023-05-21T05:24:49.790Z,17.59
2023-05-21T05:28:52.349Z,17.78
2023-05-21T05:32:54.655Z,18.00
2023-05-21T05:36:57.381Z,18.39
2023-05-21T05:40:59.696Z,18.71
2023-05-21T05:45:02.796Z,19.02
2023-05-21T05:49:06.023Z,19.34
2023-05-21T05:53:08.469Z,19.68
2023-05-21T05:57:11.548Z,19.99
2023-05-21T06:01:14.545Z,20.00
2023-05-21T06:05:17.325Z,20.11
2023-05-21T06:09:19.642Z,20.44
2023-05-21T06:13:22.783Z,20.65
2023-05-21T06:17:25.263Z,20.80
2023-05-21T06:21:28.921Z,20.62
2023-05-21T06:25:32.128Z,20.83
2023-05-21T06:29:34.640Z,21.26
2023-05-21T06:33:38.280Z,21.37
2023-05-21T06:37:41.152Z,21.52
2023-05-21T06:41:43.841Z,21.74
2023-05-21T06:46:04.483Z,21.65
2023-05-21T06:50:14.099Z,21.92
2023-05-21T06:54:16.844Z,22.16
2023-05-21T06:58:23.919Z,22.39
2023-05-21T07:02:29.186Z,22.47
2023-05-21T07:06:32.298Z,22.40
2023-05-21T07:10:35.263Z,22.22
2023-05-21T07:14:37.771Z,22.30
2023-05-21T07:18:40.109Z,22.51
2023-05-21T07:22:44.365Z,22.50
2023-05-21T07:26:49.032Z,22.52
2023-05-21T07:30:52.601Z,22.64
2023-05-21T07:35:03.948Z,22.96
2023-05-21T07:39:08.281Z,22.91
2023-05-21T07:43:13.552Z,22.74
2023-05-21T07:47:16.967Z,22.66
2023-05-21T07:51:20.705Z,22.63
2023-05-21T07:55:24.252Z,22.56
2023-05-21T07:59:27.172Z,22.39
2023-05-21T08:03:33.427Z,22.15
2023-05-21T08:07:37.061Z,22.42
2023-05-21T08:11:39.385Z,22.57
2023-05-21T08:15:43.587Z,22.94
2023-05-21T08:19:47.130Z,22.80
2023-05-21T08:23:53.078Z,22.91
2023-05-21T08:27:56.607Z,23.00
2023-05-21T08:31:59.758Z,22.93
2023-05-21T08:36:02.187Z,22.91
2023-05-21T08:40:06.739Z,23.14
2023-05-21T08:44:14.097Z,23.28
2023-05-21T08:48:17.190Z,23.59
2023-05-21T08:52:21.770Z,23.45
2023-05-21T08:56:26.231Z,23.31
2023-05-21T09:00:30.550Z,23.13
2023-05-21T09:04:34.308Z,23.33
2023-05-21T09:08:41.749Z,23.53
2023-05-21T09:13:11.865Z,23.49
2023-05-21T09:17:15.304Z,23.59
2023-05-21T09:21:26.396Z,23.53
2023-05-21T09:25:33.004Z,23.20
2023-05-21T09:29:42.975Z,23.51
2023-05-21T09:33:48.449Z,23.28
2023-05-21T09:37:53.989Z,23.20
2023-05-21T09:41:59.645Z,23.41
2023-05-21T09:46:02.551Z,23.43
2023-05-21T09:50:09.894Z,23.59
2023-05-21T09:54:13.454Z,23.81
2023-05-21T09:58:16.074Z,24.12
2023-05-21T10:02:22.634Z,24.34
2023-05-21T10:06:27.406Z,24.27
2023-05-21T10:10:32.281Z,24.74
2023-05-21T10:14:36.227Z,25.23
2023-05-21T10:18:40.130Z,25.15
2023-05-21T10:22:42.384Z,25.26
2023-05-21T10:26:48.329Z,25.21
2023-05-21T10:30:52.941Z,24.78
2023-05-21T10:34:59.227Z,24.88
2023-05-21T10:39:03.515Z,24.78
2023-05-21T10:43:31.651Z,24.51
2023-05-21T10:47:43.462Z,24.92
2023-05-21T10:52:07.358Z,25.07
2023-05-21T10:56:30.088Z,25.42
2023-05-21T11:00:32.770Z,26.01
2023-05-21T11:04:39.936Z,26.11
2023-05-21T11:08:48.152Z,26.47
2023-05-21T11:13:13.820Z,26.61
2023-05-21T11:17:38.912Z,26.84
2023-05-21T11:21:42.611Z,27.00
2023-05-21T11:25:54.594Z,26.95
2023-05-21T11:30:03.612Z,27.04
2023-05-21T11:34:28.779Z,27.22
2023-05-21T11:38:31.822Z,27.42
2023-05-21T11:42:38.907Z,27.41
2023-05-21T11:46:41.122Z,27.32
2023-05-21T11:50:43.426Z,26.96
2023-05-21T11:54:51.818Z,25.85
2023-05-21T11:58:58.822Z,25.68
2023-05-21T12:03:03.601Z,25.86
2023-05-21T12:07:13.485Z,25.81
2023-05-21T12:11:16.127Z,25.67
2023-05-21T12:15:19.157Z,25.15
2023-05-21T12:25:34.328Z,25.15
2023-05-21T12:29:39.183Z,24.77
2023-05-21T12:33:45.532Z,24.59
2023-05-21T12:37:51.027Z,24.95
2023-05-21T12:41:56.675Z,25.20
2023-05-21T12:45:59.145Z,25.84
2023-05-21T12:50:03.364Z,25.85
2023-05-21T12:54:12.241Z,25.73
2023-05-21T12:58:14.753Z,26.25
2023-05-21T13:02:32.495Z,26.21
2023-05-21T13:06:44.317Z,26.62
2023-05-21T13:10:46.661Z,26.09
2023-05-21T13:14:55.086Z,26.17
2023-05-21T13:20:05.702Z,26.71
2023-05-21T13:24:32.640Z,26.22
2023-05-21T13:28:34.820Z,26.25
2023-05-21T13:32:41.175Z,26.20
2023-05-21T13:36:45.559Z,26.41
2023-05-21T13:40:50.802Z,26.73
2023-05-21T13:44:54.327Z,26.27
2023-05-21T13:48:56.626Z,27.06
2023-05-21T13:52:59.398Z,26.95
2023-05-21T13:57:03.510Z,27.33
2023-05-21T14:01:06.067Z,26.85
2023-05-21T14:05:09.445Z,27.17
2023-05-21T14:09:11.951Z,27.37
2023-05-21T14:13:19.768Z,27.22
2023-05-21T14:17:22.634Z,27.35
2023-05-21T14:21:25.844Z,27.22
2023-05-21T14:25:28.414Z,27.26
2023-05-21T14:29:30.623Z,26.99
2023-05-21T14:33:33.998Z,27.24
2023-05-21T14:37:36.764Z,27.03
2023-05-21T14:41:40.203Z,26.48
2023-05-21T14:45:42.908Z,25.89
2023-05-21T14:49:46.271Z,25.48
2023-05-21T14:53:49.289Z,25.40
2023-05-21T14:57:51.819Z,25.20
2023-05-21T15:01:54.106Z,25.46
2023-05-21T15:05:56.358Z,25.71
2023-05-21T15:09:58.724Z,25.20
2023-05-21T15:14:01.288Z,25.12
2023-05-21T15:18:05.011Z,24.65
2023-05-21T15:22:09.630Z,24.42
2023-05-21T15:26:31.020Z,25.03
2023-05-21T15:31:07.702Z,26.49
2023-05-21T15:35:10.396Z,27.36
2023-05-21T15:39:13.074Z,29.03
2023-05-21T15:43:15.709Z,28.61
2023-05-21T15:47:19.463Z,29.26
2023-05-21T15:51:23.206Z,29.59
2023-05-21T15:55:31.052Z,30.31
2023-05-21T15:59:34.933Z,29.72
2023-05-21T16:03:37.285Z,30.76
2023-05-21T16:07:39.573Z,30.38
2023-05-21T16:11:44.287Z,29.15
2023-05-21T16:15:50.611Z,28.44
2023-05-21T16:20:06.921Z,27.93
2023-05-21T16:24:09.228Z,28.30
2023-05-21T16:28:12.586Z,28.65
2023-05-21T16:32:15.185Z,28.22
2023-05-21T16:36:18.042Z,27.91
2023-05-21T16:40:25.477Z,28.20
2023-05-21T16:44:27.677Z,28.74
2023-05-21T16:48:30.615Z,29.57
2023-05-21T16:52:35.185Z,30.78
2023-05-21T16:56:37.621Z,30.65
2023-05-21T17:00:40.087Z,29.92
2023-05-21T17:04:44.054Z,30.43
2023-05-21T17:08:47.608Z,30.33
2023-05-21T17:13:17.585Z,30.65
2023-05-21T17:17:30.491Z,30.82
2023-05-21T17:21:35.983Z,30.42
2023-05-21T17:25:44.421Z,28.79
2023-05-21T17:29:47.015Z,28.91
2023-05-21T17:33:50.162Z,28.97
2023-05-21T17:37:53.711Z,29.07
2023-05-21T17:41:57.207Z,28.51
2023-05-21T17:46:03.684Z,27.83
2023-05-21T17:50:08.670Z,25.72
2023-05-21T17:54:12.171Z,25.47
2023-05-21T17:58:18.382Z,24.50
2023-05-21T18:02:21.262Z,24.20
2023-05-21T18:06:23.557Z,23.74
2023-05-21T18:10:25.919Z,23.19
2023-05-21T18:14:31.170Z,22.91
2023-05-21T18:18:39.394Z,22.45
2023-05-21T18:22:44.633Z,22.14
2023-05-21T18:35:25.373Z,21.40
2023-05-21T18:39:28.364Z,21.04
2023-05-21T18:43:30.799Z,20.75
2023-05-21T18:47:33.663Z,20.67
2023-05-21T18:51:36.157Z,20.43
2023-05-21T18:55:38.513Z,20.32
2023-05-21T18:59:41.121Z,20.09
2023-05-21T19:03:44.448Z,19.97
2023-05-21T19:07:46.770Z,19.85
2023-05-21T19:11:49.928Z,19.90
2023-05-21T19:15:52.422Z,19.79
2023-05-21T19:19:58.701Z,19.67
2023-05-21T19:24:04.199Z,19.53
2023-05-21T19:28:08.049Z,19.47
2023-05-21T19:32:11.805Z,19.36
2023-05-21T19:36:14.942Z,19.28
2023-05-21T19:40:19.454Z,19.25
2023-05-21T19:44:25.111Z,19.20
2023-05-21T19:48:27.952Z,19.11
2023-05-21T19:52:30.354Z,19.06
2023-05-21T19:56:33.286Z,19.01
2023-05-21T20:00:37.794Z,18.85
2023-05-21T20:04:41.645Z,18.74
2023-05-21T20:08:47.040Z,18.72
2023-05-21T20:12:49.337Z,18.66
2023-05-21T20:16:53.746Z,18.44
2023-05-21T20:20:57.822Z,18.10
2023-05-21T20:25:25.174Z,18.02
2023-05-21T20:29:31.949Z,18.10
2023-05-21T20:33:39.941Z,18.22
2023-05-21T20:37:42.740Z,18.29
2023-05-21T20:46:09.600Z,17.89
2023-05-21T20:50:12.425Z,17.61
2023-05-21T20:54:14.885Z,17.44
2023-05-21T20:58:19.997Z,17.22
2023-05-21T21:02:23.453Z,17.34
2023-05-21T21:06:26.905Z,17.32
2023-05-21T21:10:30.044Z,17.13
2023-05-21T21:18:55.917Z,16.78
2023-05-21T21:23:00.711Z,16.78
2023-05-21T21:27:05.287Z,16.70
2023-05-21T21:31:09.904Z,16.70
2023-05-21T21:35:14.396Z,16.69
2023-05-21T21:39:19.589Z,16.59
2023-05-21T21:43:22.834Z,16.51
2023-05-21T21:47:25.577Z,16.47
2023-05-21T21:51:31.939Z,16.31
2023-05-21T21:55:45.416Z,16.34
2023-05-21T21:59:48.971Z,16.32
2023-05-21T22:03:51.876Z,16.38
2023-05-21T22:07:56.882Z,16.35
2023-05-21T22:12:07.852Z,16.21
2023-05-21T22:16:12.054Z,16.18
2023-05-21T22:20:15.388Z,15.95
2023-05-21T22:24:30.772Z,15.97
2023-05-21T22:28:33.929Z,15.86
2023-05-21T22:32:36.414Z,15.86
2023-05-21T22:36:39.782Z,15.55
2023-05-21T22:40:45.149Z,15.65
2023-05-21T22:44:54.227Z,15.46
2023-05-21T22:48:56.469Z,15.25
2023-05-21T22:52:59.254Z,15.02
2023-05-21T22:57:02.240Z,14.80
2023-05-21T23:01:04.533Z,14.71
2023-05-21T23:05:11.570Z,14.51
2023-05-21T23:09:20.922Z,14.67
2023-05-21T23:13:24.918Z,14.53
2023-05-21T23:17:36.360Z,14.66
2023-05-21T23:21:39.612Z,14.75
2023-05-21T23:25:42.508Z,14.76
2023-05-21T23:29:44.921Z,14.65
2023-05-21T23:33:47.248Z,14.59
2023-05-21T23:37:49.753Z,14.58
2023-05-21T23:41:52.457Z,14.62
2023-05-21T23:45:54.877Z,14.58
2023-05-21T23:49:58.330Z,14.52
2023-05-21T23:54:01.405Z,14.50
2023-05-21T23:58:04.267Z,14.36
